sensor_id;sensor_type;location;lat;lon;timestamp;pressure;altitude;pressure_sealevel;temperature;humidity
31337;BME280;22846;42.654;23.314;2023-03-29T00:02:19;94825.97;;;23.62;44.71
31337;BME280;22846;42.654;23.314;2023-03-29T00:04:45;94820.06;;;23.63;44.60
31337;BME280;22846;42.654;23.314;2023-03-29T00:07:11;94819.31;;;23.63;44.58
31337;BME280;22846;42.654;23.314;2023-03-29T00:09:38;94817.34;;;23.63;44.98
31337;BME280;22846;42.654;23.314;2023-03-29T00:12:04;94829.00;;;23.64;44.87
31337;BME280;22846;42.654;23.314;2023-03-29T00:14:29;94811.97;;;23.60;45.04
31337;BME280;22846;42.654;23.314;2023-03-29T00:16:56;94828.25;;;23.63;45.17
31337;BME280;22846;42.654;23.314;2023-03-29T00:19:22;94823.22;;;23.62;45.12
31337;BME280;22846;42.654;23.314;2023-03-29T00:21:47;94820.50;;;23.62;44.73
31337;BME280;22846;42.654;23.314;2023-03-29T00:24:13;94825.28;;;23.58;44.75
31337;BME280;22846;42.654;23.314;2023-03-29T00:26:38;94814.28;;;23.61;45.05
31337;BME280;22846;42.654;23.314;2023-03-29T00:29:04;94819.81;;;23.58;44.95
31337;BME280;22846;42.654;23.314;2023-03-29T00:31:29;94817.44;;;23.60;45.27
31337;BME280;22846;42.654;23.314;2023-03-29T00:33:55;94820.16;;;23.60;45.06
31337;BME280;22846;42.654;23.314;2023-03-29T00:36:21;94812.06;;;23.56;45.30
31337;BME280;22846;42.654;23.314;2023-03-29T00:38:47;94817.44;;;23.60;45.05
31337;BME280;22846;42.654;23.314;2023-03-29T00:41:13;94819.81;;;23.58;45.28
31337;BME280;22846;42.654;23.314;2023-03-29T00:43:57;94815.97;;;23.55;45.01
31337;BME280;22846;42.654;23.314;2023-03-29T00:46:24;94821.34;;;23.59;45.02
31337;BME280;22846;42.654;23.314;2023-03-29T00:48:54;94818.63;;;23.59;45.28
31337;BME280;22846;42.654;23.314;2023-03-29T00:51:23;94825.28;;;23.58;45.42
31337;BME280;22846;42.654;23.314;2023-03-29T00:53:55;94823.72;;;23.57;45.49
31337;BME280;22846;42.654;23.314;2023-03-29T00:56:30;94824.50;;;23.57;44.97
31337;BME280;22846;42.654;23.314;2023-03-29T00:59:04;94829.19;;;23.57;45.18
31337;BME280;22846;42.654;23.314;2023-03-29T01:04:12;94827.66;;;23.56;45.11
31337;BME280;22846;42.654;23.314;2023-03-29T01:06:45;94828.88;;;23.55;45.09
31337;BME280;22846;42.654;23.314;2023-03-29T01:09:14;94838.56;;;23.56;45.17
31337;BME280;22846;42.654;23.314;2023-03-29T01:11:46;94828.19;;;23.51;45.23
31337;BME280;22846;42.654;23.314;2023-03-29T01:14:28;94837.47;;;23.53;45.19
31337;BME280;22846;42.654;23.314;2023-03-29T01:16:58;94835.50;;;23.54;45.05
31337;BME280;22846;42.654;23.314;2023-03-29T01:19:26;94838.25;;;23.54;45.46
31337;BME280;22846;42.654;23.314;2023-03-29T01:22:09;94836.34;;;23.51;45.17
31337;BME280;22846;42.654;23.314;2023-03-29T01:30:18;94846.06;;;23.52;45.40
31337;BME280;22846;42.654;23.314;2023-03-29T01:32:59;94837.97;;;23.48;45.09
31337;BME280;22846;42.654;23.314;2023-03-29T01:35:41;94838.34;;;23.50;45.04
31337;BME280;22846;42.654;23.314;2023-03-29T01:38:20;94835.66;;;23.47;45.51
31337;BME280;22846;42.654;23.314;2023-03-29T01:40:47;94833.28;;;23.49;45.05
31337;BME280;22846;42.654;23.314;2023-03-29T01:43:26;94836.34;;;23.51;45.42
31337;BME280;22846;42.654;23.314;2023-03-29T01:46:17;94834.81;;;23.50;45.05
31337;BME280;22846;42.654;23.314;2023-03-29T01:48:50;94837.06;;;23.55;45.11
31337;BME280;22846;42.654;23.314;2023-03-29T01:51:58;94823.91;;;23.50;44.92
31337;BME280;22846;42.654;23.314;2023-03-29T01:54:31;94829.00;;;23.48;45.07
31337;BME280;22846;42.654;23.314;2023-03-29T01:56:59;94816.25;;;23.45;45.39
31337;BME280;22846;42.654;23.314;2023-03-29T01:59:30;94824.75;;;23.47;44.79
31337;BME280;22846;42.654;23.314;2023-03-29T02:01:59;94827.06;;;23.48;44.90
31337;BME280;22846;42.654;23.314;2023-03-29T02:04:32;94835.66;;;23.47;45.31
31337;BME280;22846;42.654;23.314;2023-03-29T02:07:00;94835.66;;;23.47;44.82
31337;BME280;22846;42.654;23.314;2023-03-29T02:09:28;94836.44;;;23.47;44.90
31337;BME280;22846;42.654;23.314;2023-03-29T02:11:57;94846.56;;;23.47;45.20
31337;BME280;22846;42.654;23.314;2023-03-29T02:14:24;94829.53;;;23.43;45.04
31337;BME280;22846;42.654;23.314;2023-03-29T02:16:50;94832.69;;;23.41;45.02
31337;BME280;22846;42.654;23.314;2023-03-29T02:19:16;94848.09;;;23.48;45.07
31337;BME280;22846;42.654;23.314;2023-03-29T02:21:48;94843.53;;;23.45;45.02
31337;BME280;22846;42.654;23.314;2023-03-29T02:24:17;94841.56;;;23.45;44.75
31337;BME280;22846;42.654;23.314;2023-03-29T02:26:44;94840.44;;;23.43;44.50
31337;BME280;22846;42.654;23.314;2023-03-29T02:29:10;94849.81;;;23.42;44.65
31337;BME280;22846;42.654;23.314;2023-03-29T02:31:52;94834.28;;;23.39;45.07
31337;BME280;22846;42.654;23.314;2023-03-29T02:34:25;94843.66;;;23.38;44.93
31337;BME280;22846;42.654;23.314;2023-03-29T02:36:56;94850.56;;;23.42;44.47
31337;BME280;22846;42.654;23.314;2023-03-29T02:39:24;94852.53;;;23.42;44.62
31337;BME280;22846;42.654;23.314;2023-03-29T02:41:51;94856.47;;;23.41;44.81
31337;BME280;22846;42.654;23.314;2023-03-29T02:44:24;94861.56;;;23.39;45.04
31337;BME280;22846;42.654;23.314;2023-03-29T02:46:54;94852.63;;;23.38;44.49
31337;BME280;22846;42.654;23.314;2023-03-29T02:49:21;94864.66;;;23.41;44.92
31337;BME280;22846;42.654;23.314;2023-03-29T02:51:48;94867.03;;;23.39;44.94
31337;BME280;22846;42.654;23.314;2023-03-29T02:54:21;94868.22;;;23.38;44.73
31337;BME280;22846;42.654;23.314;2023-03-29T02:56:53;94862.84;;;23.34;44.56
31337;BME280;22846;42.654;23.314;2023-03-29T02:59:19;94879.13;;;23.38;44.96
31337;BME280;22846;42.654;23.314;2023-03-29T03:01:47;94877.94;;;23.39;44.92
31337;BME280;22846;42.654;23.314;2023-03-29T03:04:13;94883.06;;;23.37;44.87
31337;BME280;22846;42.654;23.314;2023-03-29T03:06:39;94878.38;;;23.37;44.79
31337;BME280;22846;42.654;23.314;2023-03-29T03:09:05;94883.56;;;23.48;45.04
31337;BME280;22846;42.654;23.314;2023-03-29T03:11:31;94884.28;;;23.68;43.80
31337;BME280;22846;42.654;23.314;2023-03-29T03:13:56;94877.66;;;23.85;44.09
31337;BME280;22846;42.654;23.314;2023-03-29T03:16:22;94881.06;;;24.04;43.40
31337;BME280;22846;42.654;23.314;2023-03-29T03:18:48;94886.16;;;24.18;43.46
31337;BME280;22846;42.654;23.314;2023-03-29T03:21:16;94891.56;;;24.34;43.06
31337;BME280;22846;42.654;23.314;2023-03-29T03:23:42;94886.97;;;24.47;43.25
31337;BME280;22846;42.654;23.314;2023-03-29T03:26:07;94888.22;;;24.59;42.66
31337;BME280;22846;42.654;23.314;2023-03-29T03:28:33;94892.63;;;24.69;42.53
31337;BME280;22846;42.654;23.314;2023-03-29T03:30:59;94902.81;;;24.80;42.61
31337;BME280;22846;42.654;23.314;2023-03-29T03:33:24;94913.88;;;24.89;42.45
31337;BME280;22846;42.654;23.314;2023-03-29T03:35:51;94897.72;;;24.95;42.07
31337;BME280;22846;42.654;23.314;2023-03-29T03:38:21;94909.13;;;25.06;41.79
31337;BME280;22846;42.654;23.314;2023-03-29T03:40:53;94904.69;;;25.12;41.72
31337;BME280;22846;42.654;23.314;2023-03-29T03:43:19;94902.06;;;25.21;41.52
31337;BME280;22846;42.654;23.314;2023-03-29T03:45:45;94917.16;;;25.25;41.61
31337;BME280;22846;42.654;23.314;2023-03-29T03:48:11;94913.56;;;25.28;41.16
31337;BME280;22846;42.654;23.314;2023-03-29T03:50:36;94914.03;;;25.39;41.18
31337;BME280;22846;42.654;23.314;2023-03-29T03:53:02;94927.94;;;25.45;40.94
31337;BME280;22846;42.654;23.314;2023-03-29T03:55:27;94932.09;;;25.49;41.08
31337;BME280;22846;42.654;23.314;2023-03-29T03:57:54;94932.75;;;25.53;41.00
31337;BME280;22846;42.654;23.314;2023-03-29T04:00:20;94933.84;;;25.56;41.11
31337;BME280;22846;42.654;23.314;2023-03-29T04:02:46;94936.81;;;25.61;40.74
31337;BME280;22846;42.654;23.314;2023-03-29T04:05:12;94937.91;;;25.63;40.57
31337;BME280;22846;42.654;23.314;2023-03-29T04:07:38;94933.97;;;25.64;40.37
31337;BME280;22846;42.654;23.314;2023-03-29T04:10:04;94933.22;;;25.64;40.44
31337;BME280;22846;42.654;23.314;2023-03-29T04:12:30;94937.91;;;25.63;40.36
31337;BME280;22846;42.654;23.314;2023-03-29T04:14:56;94937.59;;;25.62;40.85
31337;BME280;22846;42.654;23.314;2023-03-29T04:17:21;94935.28;;;25.60;40.85
31337;BME280;22846;42.654;23.314;2023-03-29T04:19:47;94932.97;;;25.59;40.62
31337;BME280;22846;42.654;23.314;2023-03-29T04:22:12;94943.47;;;25.60;40.46
31337;BME280;22846;42.654;23.314;2023-03-29T04:24:38;94933.09;;;25.55;40.75
31337;BME280;22846;42.654;23.314;2023-03-29T04:27:03;94938.91;;;25.57;40.54
31337;BME280;22846;42.654;23.314;2023-03-29T04:29:28;94943.81;;;25.50;40.92
31337;BME280;22846;42.654;23.314;2023-03-29T04:31:54;94947.31;;;25.50;40.77
31337;BME280;22846;42.654;23.314;2023-03-29T04:34:20;94954.09;;;25.46;41.07
31337;BME280;22846;42.654;23.314;2023-03-29T04:36:46;94924.19;;;25.26;39.63
31337;BME280;22846;42.654;23.314;2023-03-29T04:39:15;94940.50;;;25.30;38.73
31337;BME280;22846;42.654;23.314;2023-03-29T04:41:45;94951.97;;;25.25;40.75
31337;BME280;22846;42.654;23.314;2023-03-29T04:44:11;94944.09;;;25.14;40.61
31337;BME280;22846;42.654;23.314;2023-03-29T04:46:38;94944.56;;;25.09;40.21
31337;BME280;22846;42.654;23.314;2023-03-29T04:49:05;94942.50;;;25.01;40.15
31337;BME280;22846;42.654;23.314;2023-03-29T04:51:30;94944.31;;;24.91;40.58
31337;BME280;22846;42.654;23.314;2023-03-29T04:53:56;94953.81;;;24.87;41.17
31337;BME280;22846;42.654;23.314;2023-03-29T04:56:21;94957.06;;;24.82;41.26
31337;BME280;22846;42.654;23.314;2023-03-29T04:58:47;94968.53;;;24.77;41.73
31337;BME280;22846;42.654;23.314;2023-03-29T05:01:13;94966.75;;;24.71;41.16
31337;BME280;22846;42.654;23.314;2023-03-29T05:03:38;94964.53;;;24.66;41.84
31337;BME280;22846;42.654;23.314;2023-03-29T05:06:05;94969.34;;;24.62;41.37
31337;BME280;22846;42.654;23.314;2023-03-29T05:08:33;94974.91;;;24.58;41.90
31337;BME280;22846;42.654;23.314;2023-03-29T05:10:59;94983.00;;;24.62;42.95
31337;BME280;22846;42.654;23.314;2023-03-29T05:13:24;94982.56;;;24.63;43.12
31337;BME280;22846;42.654;23.314;2023-03-29T05:15:49;94987.00;;;24.73;43.17
31337;BME280;22846;42.654;23.314;2023-03-29T05:18:16;94989.00;;;24.85;43.98
31337;BME280;22846;42.654;23.314;2023-03-29T05:20:41;94995.75;;;24.96;43.46
31337;BME280;22846;42.654;23.314;2023-03-29T05:23:06;94997.84;;;25.05;43.84
31337;BME280;22846;42.654;23.314;2023-03-29T05:25:32;95005.03;;;25.15;43.68
31337;BME280;22846;42.654;23.314;2023-03-29T05:27:58;95006.78;;;25.21;43.39
31337;BME280;22846;42.654;23.314;2023-03-29T05:30:23;95010.53;;;25.27;43.36
31337;BME280;22846;42.654;23.314;2023-03-29T05:32:49;95017.44;;;25.32;43.43
31337;BME280;22846;42.654;23.314;2023-03-29T05:35:14;95005.72;;;25.31;43.23
31337;BME280;22846;42.654;23.314;2023-03-29T05:37:40;95003.78;;;25.44;43.27
31337;BME280;22846;42.654;23.314;2023-03-29T05:40:06;94999.28;;;25.50;43.05
31337;BME280;22846;42.654;23.314;2023-03-29T05:42:34;95005.91;;;25.53;43.33
31337;BME280;22846;42.654;23.314;2023-03-29T05:45:00;94989.13;;;25.51;42.60
31337;BME280;22846;42.654;23.314;2023-03-29T05:47:25;95010.59;;;25.64;42.44
31337;BME280;22846;42.654;23.314;2023-03-29T05:49:51;95011.28;;;25.68;42.74
31337;BME280;22846;42.654;23.314;2023-03-29T05:52:17;95008.75;;;25.62;42.34
31337;BME280;22846;42.654;23.314;2023-03-29T05:54:43;95018.72;;;25.68;42.32
31337;BME280;22846;42.654;23.314;2023-03-29T05:57:09;95017.84;;;25.71;42.14
31337;BME280;22846;42.654;23.314;2023-03-29T05:59:34;95019.59;;;25.65;42.21
31337;BME280;22846;42.654;23.314;2023-03-29T06:02:00;95016.41;;;25.66;42.34
31337;BME280;22846;42.654;23.314;2023-03-29T06:04:27;95018.91;;;25.61;42.10
31337;BME280;22846;42.654;23.314;2023-03-29T06:06:53;95023.81;;;25.54;42.28
31337;BME280;22846;42.654;23.314;2023-03-29T06:09:19;95014.72;;;25.44;41.82
31337;BME280;22846;42.654;23.314;2023-03-29T06:11:44;95028.28;;;25.35;42.32
31337;BME280;22846;42.654;23.314;2023-03-29T06:14:11;95032.66;;;25.33;42.83
31337;BME280;22846;42.654;23.314;2023-03-29T06:16:37;95026.59;;;25.25;43.17
31337;BME280;22846;42.654;23.314;2023-03-29T06:19:03;95037.63;;;25.22;43.27
31337;BME280;22846;42.654;23.314;2023-03-29T06:21:29;95033.81;;;25.19;43.18
31337;BME280;22846;42.654;23.314;2023-03-29T06:23:55;95036.53;;;25.19;42.80
31337;BME280;22846;42.654;23.314;2023-03-29T06:26:21;95030.38;;;25.15;42.37
31337;BME280;22846;42.654;23.314;2023-03-29T06:28:46;95028.88;;;25.14;42.92
31337;BME280;22846;42.654;23.314;2023-03-29T06:31:12;95047.34;;;25.10;42.91
31337;BME280;22846;42.654;23.314;2023-03-29T06:33:38;95052.09;;;25.06;42.99
31337;BME280;22846;42.654;23.314;2023-03-29T06:36:05;95055.16;;;25.08;43.37
31337;BME280;22846;42.654;23.314;2023-03-29T06:38:30;95050.66;;;25.02;43.09
31337;BME280;22846;42.654;23.314;2023-03-29T06:41:03;95069.56;;;25.12;43.26
31337;BME280;22846;42.654;23.314;2023-03-29T06:43:29;95065.28;;;25.11;42.95
31337;BME280;22846;42.654;23.314;2023-03-29T06:45:55;95067.47;;;25.16;43.08
31337;BME280;22846;42.654;23.314;2023-03-29T06:48:21;95068.59;;;25.19;41.49
31337;BME280;22846;42.654;23.314;2023-03-29T06:50:47;95074.16;;;25.15;39.91
31337;BME280;22846;42.654;23.314;2023-03-29T06:53:13;95068.69;;;25.15;39.89
31337;BME280;22846;42.654;23.314;2023-03-29T06:55:39;95075.03;;;25.12;40.12
31337;BME280;22846;42.654;23.314;2023-03-29T06:58:05;95073.75;;;25.17;40.07
31337;BME280;22846;42.654;23.314;2023-03-29T07:00:32;95054.16;;;25.02;39.19
31337;BME280;22846;42.654;23.314;2023-03-29T07:03:04;95067.59;;;25.13;39.41
31337;BME280;22846;42.654;23.314;2023-03-29T07:05:30;95063.00;;;25.10;39.82
31337;BME280;22846;42.654;23.314;2023-03-29T07:07:56;95065.94;;;25.15;39.82
31337;BME280;22846;42.654;23.314;2023-03-29T07:10:36;95070.22;;;25.16;39.75
31337;BME280;22846;42.654;23.314;2023-03-29T07:13:04;95071.00;;;25.17;40.14
31337;BME280;22846;42.654;23.314;2023-03-29T07:15:33;95075.59;;;25.20;40.19
31337;BME280;22846;42.654;23.314;2023-03-29T07:17:59;95066.28;;;25.17;40.06
31337;BME280;22846;42.654;23.314;2023-03-29T07:20:26;95072.09;;;25.19;39.88
31337;BME280;22846;42.654;23.314;2023-03-29T07:22:52;95065.53;;;25.17;40.39
31337;BME280;22846;42.654;23.314;2023-03-29T07:25:19;95075.50;;;25.23;40.37
31337;BME280;22846;42.654;23.314;2023-03-29T07:27:46;95072.34;;;25.25;39.98
31337;BME280;22846;42.654;23.314;2023-03-29T07:30:15;95059.09;;;25.23;40.06
31337;BME280;22846;42.654;23.314;2023-03-29T07:32:41;95067.97;;;25.27;39.84
31337;BME280;22846;42.654;23.314;2023-03-29T07:35:09;95066.97;;;25.21;39.91
31337;BME280;22846;42.654;23.314;2023-03-29T07:37:35;95061.81;;;25.23;38.29
31337;BME280;22846;42.654;23.314;2023-03-29T07:40:03;95067.63;;;25.25;38.74
31337;BME280;22846;42.654;23.314;2023-03-29T07:42:37;95052.94;;;25.19;38.87
31337;BME280;22846;42.654;23.314;2023-03-29T07:45:06;95056.63;;;25.13;39.18
31337;BME280;22846;42.654;23.314;2023-03-29T07:47:32;95054.25;;;25.15;39.74
31337;BME280;22846;42.654;23.314;2023-03-29T07:49:59;95052.72;;;25.14;39.63
31337;BME280;22846;42.654;23.314;2023-03-29T07:52:24;95048.50;;;25.09;39.63
31337;BME280;22846;42.654;23.314;2023-03-29T07:54:52;95049.53;;;25.15;39.92
31337;BME280;22846;42.654;23.314;2023-03-29T07:57:18;95038.09;;;25.20;40.23
31337;BME280;22846;42.654;23.314;2023-03-29T07:59:43;95031.50;;;25.18;40.47
31337;BME280;22846;42.654;23.314;2023-03-29T08:02:09;95044.31;;;25.21;40.05
31337;BME280;22846;42.654;23.314;2023-03-29T08:04:35;95046.69;;;25.19;40.15
31337;BME280;22846;42.654;23.314;2023-03-29T08:07:00;95030.38;;;25.15;40.29
31337;BME280;22846;42.654;23.314;2023-03-29T08:09:26;95020.22;;;25.16;40.45
31337;BME280;22846;42.654;23.314;2023-03-29T08:11:51;95027.25;;;25.17;39.84
31337;BME280;22846;42.654;23.314;2023-03-29T08:14:17;95022.88;;;25.19;39.86
31337;BME280;22846;42.654;23.314;2023-03-29T08:16:43;95017.28;;;25.23;39.87
31337;BME280;22846;42.654;23.314;2023-03-29T08:19:08;95012.91;;;25.25;40.27
31337;BME280;22846;42.654;23.314;2023-03-29T08:21:34;95014.13;;;25.24;40.53
31337;BME280;22846;42.654;23.314;2023-03-29T08:23:59;95017.63;;;25.25;39.98
31337;BME280;22846;42.654;23.314;2023-03-29T08:26:25;95016.09;;;25.24;40.59
31337;BME280;22846;42.654;23.314;2023-03-29T08:28:51;95005.25;;;25.20;40.38
31337;BME280;22846;42.654;23.314;2023-03-29T08:31:16;95004.56;;;25.16;40.27
31337;BME280;22846;42.654;23.314;2023-03-29T08:33:41;95020.47;;;25.21;40.00
31337;BME280;22846;42.654;23.314;2023-03-29T08:36:08;95001.22;;;25.25;40.17
31337;BME280;22846;42.654;23.314;2023-03-29T08:38:34;95010.63;;;25.24;40.61
31337;BME280;22846;42.654;23.314;2023-03-29T08:40:59;95020.78;;;25.23;40.13
31337;BME280;22846;42.654;23.314;2023-03-29T08:43:51;95012.69;;;25.20;40.11
31337;BME280;22846;42.654;23.314;2023-03-29T08:48:55;95020.88;;;25.20;40.84
31337;BME280;22846;42.654;23.314;2023-03-29T08:51:37;95012.25;;;25.21;40.71
31337;BME280;22846;42.654;23.314;2023-03-29T08:54:08;95013.38;;;25.24;40.54
31337;BME280;22846;42.654;23.314;2023-03-29T08:56:37;95019.16;;;25.26;40.74
31337;BME280;22846;42.654;23.314;2023-03-29T08:59:10;95006.59;;;25.28;40.41
31337;BME280;22846;42.654;23.314;2023-03-29T09:01:39;95010.53;;;25.27;40.56
31337;BME280;22846;42.654;23.314;2023-03-29T09:04:20;95001.22;;;25.25;40.86
31337;BME280;22846;42.654;23.314;2023-03-29T09:06:47;95003.63;;;25.23;40.77
31337;BME280;22846;42.654;23.314;2023-03-29T09:09:21;95000.53;;;25.21;40.55
31337;BME280;22846;42.654;23.314;2023-03-29T09:28:20;94993.63;;;25.16;40.72
31337;BME280;22846;42.654;23.314;2023-03-29T09:31:11;94990.47;;;25.18;40.49
31337;BME280;22846;42.654;23.314;2023-03-29T09:33:51;94987.97;;;25.23;40.98
31337;BME280;22846;42.654;23.314;2023-03-29T09:38:56;94988.06;;;25.20;40.24
31337;BME280;22846;42.654;23.314;2023-03-29T09:41:38;94985.00;;;25.18;40.79
31337;BME280;22846;42.654;23.314;2023-03-29T09:44:18;94989.34;;;25.15;41.05
31337;BME280;22846;42.654;23.314;2023-03-29T09:46:48;94987.50;;;25.12;40.56
31337;BME280;22846;42.654;23.314;2023-03-29T09:49:20;94976.81;;;25.02;40.80
31337;BME280;22846;42.654;23.314;2023-03-29T09:51:48;94988.59;;;25.15;40.26
31337;BME280;22846;42.654;23.314;2023-03-29T09:54:14;94994.31;;;25.20;40.60
31337;BME280;22846;42.654;23.314;2023-03-29T09:56:40;94997.38;;;25.22;40.40
31337;BME280;22846;42.654;23.314;2023-03-29T09:59:09;94985.00;;;25.18;40.55
31337;BME280;22846;42.654;23.314;2023-03-29T10:01:37;94992.88;;;25.16;40.27
31337;BME280;22846;42.654;23.314;2023-03-29T10:04:13;94982.69;;;25.16;40.59
31337;BME280;22846;42.654;23.314;2023-03-29T10:06:45;94978.00;;;25.17;40.49
31337;BME280;22846;42.654;23.314;2023-03-29T10:09:19;94976.13;;;25.14;40.33
31337;BME280;22846;42.654;23.314;2023-03-29T10:11:50;94985.00;;;25.18;40.41
31337;BME280;22846;42.654;23.314;2023-03-29T10:14:18;94976.25;;;25.23;40.34
31337;BME280;22846;42.654;23.314;2023-03-29T10:16:45;94976.94;;;25.27;40.18
31337;BME280;22846;42.654;23.314;2023-03-29T10:19:29;94978.44;;;25.28;40.28
31337;BME280;22846;42.654;23.314;2023-03-29T10:21:58;94968.41;;;25.25;40.46
31337;BME280;22846;42.654;23.314;2023-03-29T10:24:25;94961.06;;;25.22;40.46
31337;BME280;22846;42.654;23.314;2023-03-29T10:26:58;94958.75;;;25.20;41.05
31337;BME280;22846;42.654;23.314;2023-03-29T10:29:24;94964.97;;;25.21;41.06
31337;BME280;22846;42.654;23.314;2023-03-29T10:31:52;94951.75;;;25.19;40.52
31337;BME280;22846;42.654;23.314;2023-03-29T10:34:18;94959.84;;;25.23;40.76
31337;BME280;22846;42.654;23.314;2023-03-29T10:36:59;94943.00;;;25.24;40.62
31337;BME280;22846;42.654;23.314;2023-03-29T10:39:28;94959.63;;;25.30;40.73
31337;BME280;22846;42.654;23.314;2023-03-29T10:41:58;94945.63;;;25.28;40.33
31337;BME280;22846;42.654;23.314;2023-03-29T10:44:29;94946.50;;;25.25;41.00
31337;BME280;22846;42.654;23.314;2023-03-29T10:46:55;94954.03;;;25.21;39.97
31337;BME280;22846;42.654;23.314;2023-03-29T10:49:39;94959.94;;;25.19;40.64
31337;BME280;22846;42.654;23.314;2023-03-29T10:52:06;94948.66;;;25.17;41.00
31337;BME280;22846;42.654;23.314;2023-03-29T10:54:32;94943.19;;;25.17;40.32
31337;BME280;22846;42.654;23.314;2023-03-29T10:57:02;94934.88;;;25.21;40.47
31337;BME280;22846;42.654;23.314;2023-03-29T10:59:43;94940.59;;;25.26;40.75
31337;BME280;22846;42.654;23.314;2023-03-29T11:04:45;94933.94;;;25.27;40.52
31337;BME280;22846;42.654;23.314;2023-03-29T11:15:45;94913.69;;;25.25;40.49
31337;BME280;22846;42.654;23.314;2023-03-29T11:21:00;94914.88;;;25.24;40.65
31337;BME280;22846;42.654;23.314;2023-03-29T11:23:44;94925.81;;;25.24;40.93
31337;BME280;22846;42.654;23.314;2023-03-29T11:26:18;94920.59;;;25.29;40.73
31337;BME280;22846;42.654;23.314;2023-03-29T11:28:53;94922.53;;;25.29;41.16
31337;BME280;22846;42.654;23.314;2023-03-29T11:39:22;94924.06;;;25.30;40.74
31337;BME280;22846;42.654;23.314;2023-03-29T11:41:55;94917.41;;;25.31;40.76
31337;BME280;22846;42.654;23.314;2023-03-29T11:44:29;94925.94;;;25.33;40.41
31337;BME280;22846;42.654;23.314;2023-03-29T11:47:22;94919.69;;;25.32;40.10
31337;BME280;22846;42.654;23.314;2023-03-29T11:49:49;94917.28;;;25.34;40.64
31337;BME280;22846;42.654;23.314;2023-03-29T11:52:20;94907.31;;;25.28;39.93
31337;BME280;22846;42.654;23.314;2023-03-29T11:54:57;94914.88;;;25.24;40.48
31337;BME280;22846;42.654;23.314;2023-03-29T11:57:30;94899.66;;;25.23;40.56
31337;BME280;22846;42.654;23.314;2023-03-29T12:00:23;94894.31;;;25.19;39.48
31337;BME280;22846;42.654;23.314;2023-03-29T12:08:11;94888.97;;;25.41;39.16
31337;BME280;22846;42.654;23.314;2023-03-29T12:15:56;94888.75;;;25.48;39.18
31337;BME280;22846;42.654;23.314;2023-03-29T12:18:26;94886.34;;;25.50;39.28
31337;BME280;22846;42.654;23.314;2023-03-29T12:21:02;94898.81;;;25.51;39.53
31337;BME280;22846;42.654;23.314;2023-03-29T12:23:31;94890.50;;;25.54;39.58
31337;BME280;22846;42.654;23.314;2023-03-29T12:31:38;94889.53;;;25.48;40.11
31337;BME280;22846;42.654;23.314;2023-03-29T12:34:28;94902.88;;;25.46;40.25
31337;BME280;22846;42.654;23.314;2023-03-29T12:39:43;94898.25;;;25.43;40.54
31337;BME280;22846;42.654;23.314;2023-03-29T12:42:12;94892.91;;;25.40;40.12
31337;BME280;22846;42.654;23.314;2023-03-29T12:44:42;94896.09;;;25.38;40.21
31337;BME280;22846;42.654;23.314;2023-03-29T12:47:16;94902.31;;;25.39;40.90
31337;BME280;22846;42.654;23.314;2023-03-29T12:49:43;94905.38;;;25.41;40.80
31337;BME280;22846;42.654;23.314;2023-03-29T12:52:33;94902.75;;;25.37;40.60
31337;BME280;22846;42.654;23.314;2023-03-29T12:55:02;94904.72;;;25.37;40.79
31337;BME280;22846;42.654;23.314;2023-03-29T12:57:43;94896.94;;;25.35;40.38
31337;BME280;22846;42.654;23.314;2023-03-29T13:03:03;94914.78;;;25.40;40.97
31337;BME280;22846;42.654;23.314;2023-03-29T13:05:34;94895.19;;;25.41;41.38
31337;BME280;22846;42.654;23.314;2023-03-29T13:08:27;94922.88;;;25.43;41.04
31337;BME280;22846;42.654;23.314;2023-03-29T13:10:56;94923.66;;;25.44;41.34
31337;BME280;22846;42.654;23.314;2023-03-29T13:13:26;94903.94;;;25.36;41.25
31337;BME280;22846;42.654;23.314;2023-03-29T13:15:52;94919.41;;;25.43;41.02
31337;BME280;22846;42.654;23.314;2023-03-29T13:21:19;94920.94;;;25.44;40.58
31337;BME280;22846;42.654;23.314;2023-03-29T13:39:53;94906.69;;;25.36;40.00
31337;BME280;22846;42.654;23.314;2023-03-29T13:45:28;94894.53;;;25.37;40.19
31337;BME280;22846;42.654;23.314;2023-03-29T13:51:19;94901.91;;;25.40;40.60
31337;BME280;22846;42.654;23.314;2023-03-29T13:53:56;94895.97;;;25.42;40.59
31337;BME280;22846;42.654;23.314;2023-03-29T13:56:33;94892.03;;;25.43;39.90
31337;BME280;22846;42.654;23.314;2023-03-29T13:59:17;94903.72;;;25.43;40.04
31337;BME280;22846;42.654;23.314;2023-03-29T14:01:49;94900.59;;;25.45;40.39
31337;BME280;22846;42.654;23.314;2023-03-29T14:04:22;94903.50;;;25.50;40.55
31337;BME280;22846;42.654;23.314;2023-03-29T14:06:51;94902.88;;;25.46;40.09
31337;BME280;22846;42.654;23.314;2023-03-29T14:09:20;94898.94;;;25.47;39.59
31337;BME280;22846;42.654;23.314;2023-03-29T14:11:47;94903.41;;;25.41;39.02
31337;BME280;22846;42.654;23.314;2023-03-29T14:14:13;94908.13;;;25.41;39.40
31337;BME280;22846;42.654;23.314;2023-03-29T14:16:39;94904.50;;;25.44;39.61
31337;BME280;22846;42.654;23.314;2023-03-29T14:19:18;94905.38;;;25.41;39.46
31337;BME280;22846;42.654;23.314;2023-03-29T14:21:48;94902.97;;;25.43;39.58
31337;BME280;22846;42.654;23.314;2023-03-29T14:24:25;94903.09;;;25.39;39.58
31337;BME280;22846;42.654;23.314;2023-03-29T14:26:52;94908.78;;;25.45;40.03
31337;BME280;22846;42.654;23.314;2023-03-29T14:29:18;94908.78;;;25.45;39.72
31337;BME280;22846;42.654;23.314;2023-03-29T14:31:43;94894.66;;;25.46;39.76
31337;BME280;22846;42.654;23.314;2023-03-29T14:34:16;94912.28;;;25.45;39.83
31337;BME280;22846;42.654;23.314;2023-03-29T14:36:47;94914.69;;;25.43;39.88
31337;BME280;22846;42.654;23.314;2023-03-29T14:39:19;94920.50;;;25.45;39.63
31337;BME280;22846;42.654;23.314;2023-03-29T14:41:51;94911.84;;;25.47;39.54